Huffman, Texas
Current Conditions -  °F | °C
As of 6:53 PM on Wednesday 22 Oct 2014 (Local Time) from KIAH Reporting Station
Scattered Clouds Scattered Clouds  
Wind Chill: 73°   Ceiling: Unl
Heat Index: 73°   Visibility: 10mi
Dew Point: 58°   Wind: 6mph
Humidity: 59%   Direction: 30°NNE
Pressure: 30.05"   Gusts: NA
Location:  30.03°N, 95.09°W
Report Text: KIAH 222353Z 03005KT 10SM FEW050 SCT250 23/14 A3005 RMK AO2 SLP175 T02280144 10278 20228 53004
Loading
Personal Weather Stations






























Interactive Weather Map
Tropical Storm Tracking
New forecast layout! Learn more

10-Day Weather Forecast

Advertisements
Track Severe Weather on mobile